sensor_id;sensor_type;location;lat;lon;timestamp;P1;durP1;ratioP1;P2;durP2;ratioP2
16472;SDS011;8347;52.486;13.432;2023-08-24T00:02:32;7.03;;;4.93;;
16472;SDS011;8347;52.486;13.432;2023-08-24T00:05:19;7.82;;;4.90;;
16472;SDS011;8347;52.486;13.432;2023-08-24T00:08:07;7.85;;;5.47;;
16472;SDS011;8347;52.486;13.432;2023-08-24T00:10:57;10.40;;;5.45;;
16472;SDS011;8347;52.486;13.432;2023-08-24T00:13:44;7.45;;;5.22;;
16472;SDS011;8347;52.486;13.432;2023-08-24T00:16:34;8.50;;;5.10;;
16472;SDS011;8347;52.486;13.432;2023-08-24T00:19:21;5.40;;;4.85;;
16472;SDS011;8347;52.486;13.432;2023-08-24T00:22:07;7.55;;;4.72;;
16472;SDS011;8347;52.486;13.432;2023-08-24T00:24:53;11.07;;;5.07;;
16472;SDS011;8347;52.486;13.432;2023-08-24T00:27:40;8.18;;;4.93;;
16472;SDS011;8347;52.486;13.432;2023-08-24T00:30:27;9.98;;;5.45;;
16472;SDS011;8347;52.486;13.432;2023-08-24T00:33:13;6.32;;;4.63;;
16472;SDS011;8347;52.486;13.432;2023-08-24T00:36:00;10.73;;;5.18;;
16472;SDS011;8347;52.486;13.432;2023-08-24T00:38:47;6.90;;;5.05;;
16472;SDS011;8347;52.486;13.432;2023-08-24T00:41:37;9.73;;;5.88;;
16472;SDS011;8347;52.486;13.432;2023-08-24T00:44:23;9.02;;;5.18;;
16472;SDS011;8347;52.486;13.432;2023-08-24T00:47:10;6.50;;;5.28;;
16472;SDS011;8347;52.486;13.432;2023-08-24T00:49:56;6.07;;;4.63;;
16472;SDS011;8347;52.486;13.432;2023-08-24T00:52:43;5.20;;;4.68;;
16472;SDS011;8347;52.486;13.432;2023-08-24T00:55:30;7.88;;;4.63;;
16472;SDS011;8347;52.486;13.432;2023-08-24T00:58:17;8.20;;;5.60;;
16472;SDS011;8347;52.486;13.432;2023-08-24T01:01:06;5.43;;;4.03;;
16472;SDS011;8347;52.486;13.432;2023-08-24T01:03:53;7.25;;;4.60;;
16472;SDS011;8347;52.486;13.432;2023-08-24T01:06:39;7.63;;;5.47;;
16472;SDS011;8347;52.486;13.432;2023-08-24T01:09:27;5.55;;;4.43;;
16472;SDS011;8347;52.486;13.432;2023-08-24T01:12:28;9.65;;;5.07;;
16472;SDS011;8347;52.486;13.432;2023-08-24T01:15:29;6.93;;;4.85;;
16472;SDS011;8347;52.486;13.432;2023-08-24T01:18:17;7.97;;;4.82;;
16472;SDS011;8347;52.486;13.432;2023-08-24T01:21:06;5.10;;;4.40;;
16472;SDS011;8347;52.486;13.432;2023-08-24T01:27:04;9.00;;;5.57;;
16472;SDS011;8347;52.486;13.432;2023-08-24T01:29:51;7.03;;;5.38;;
16472;SDS011;8347;52.486;13.432;2023-08-24T01:32:44;7.60;;;5.40;;
16472;SDS011;8347;52.486;13.432;2023-08-24T01:35:31;12.82;;;5.47;;
16472;SDS011;8347;52.486;13.432;2023-08-24T01:38:18;6.95;;;4.90;;
16472;SDS011;8347;52.486;13.432;2023-08-24T01:41:12;7.93;;;5.15;;
16472;SDS011;8347;52.486;13.432;2023-08-24T01:43:59;8.60;;;5.03;;
16472;SDS011;8347;52.486;13.432;2023-08-24T01:46:49;5.65;;;4.60;;
16472;SDS011;8347;52.486;13.432;2023-08-24T01:49:37;9.43;;;4.57;;
16472;SDS011;8347;52.486;13.432;2023-08-24T01:52:25;5.75;;;4.35;;
16472;SDS011;8347;52.486;13.432;2023-08-24T01:55:13;6.47;;;4.57;;
16472;SDS011;8347;52.486;13.432;2023-08-24T01:58:01;5.88;;;4.05;;
16472;SDS011;8347;52.486;13.432;2023-08-24T02:00:47;7.43;;;3.60;;
16472;SDS011;8347;52.486;13.432;2023-08-24T02:03:34;5.65;;;4.35;;
16472;SDS011;8347;52.486;13.432;2023-08-24T02:06:20;5.57;;;4.50;;
16472;SDS011;8347;52.486;13.432;2023-08-24T02:09:07;6.03;;;3.97;;
16472;SDS011;8347;52.486;13.432;2023-08-24T02:11:54;4.90;;;3.90;;
16472;SDS011;8347;52.486;13.432;2023-08-24T02:14:40;5.55;;;3.83;;
16472;SDS011;8347;52.486;13.432;2023-08-24T02:17:26;5.93;;;4.25;;
16472;SDS011;8347;52.486;13.432;2023-08-24T02:20:13;8.25;;;5.22;;
16472;SDS011;8347;52.486;13.432;2023-08-24T02:22:59;6.18;;;4.53;;
16472;SDS011;8347;52.486;13.432;2023-08-24T02:25:46;5.57;;;4.32;;
16472;SDS011;8347;52.486;13.432;2023-08-24T02:28:33;5.07;;;3.80;;
16472;SDS011;8347;52.486;13.432;2023-08-24T02:31:19;6.00;;;4.28;;
16472;SDS011;8347;52.486;13.432;2023-08-24T02:34:06;5.90;;;4.43;;
16472;SDS011;8347;52.486;13.432;2023-08-24T02:36:53;6.05;;;4.43;;
16472;SDS011;8347;52.486;13.432;2023-08-24T02:39:39;5.40;;;4.03;;
16472;SDS011;8347;52.486;13.432;2023-08-24T02:42:26;5.90;;;4.18;;
16472;SDS011;8347;52.486;13.432;2023-08-24T02:45:14;7.00;;;4.95;;
16472;SDS011;8347;52.486;13.432;2023-08-24T02:48:00;7.15;;;4.82;;
16472;SDS011;8347;52.486;13.432;2023-08-24T02:50:47;7.70;;;5.35;;
16472;SDS011;8347;52.486;13.432;2023-08-24T02:53:34;6.85;;;4.85;;
16472;SDS011;8347;52.486;13.432;2023-08-24T02:56:21;6.57;;;5.10;;
16472;SDS011;8347;52.486;13.432;2023-08-24T02:59:07;7.18;;;5.30;;
16472;SDS011;8347;52.486;13.432;2023-08-24T03:01:53;5.70;;;4.80;;
16472;SDS011;8347;52.486;13.432;2023-08-24T03:04:40;7.07;;;5.25;;
16472;SDS011;8347;52.486;13.432;2023-08-24T03:07:26;8.13;;;5.82;;
16472;SDS011;8347;52.486;13.432;2023-08-24T03:10:13;7.85;;;5.15;;
16472;SDS011;8347;52.486;13.432;2023-08-24T03:12:59;6.93;;;5.90;;
16472;SDS011;8347;52.486;13.432;2023-08-24T03:15:46;6.55;;;5.07;;
16472;SDS011;8347;52.486;13.432;2023-08-24T03:18:33;7.32;;;4.68;;
16472;SDS011;8347;52.486;13.432;2023-08-24T03:21:22;8.05;;;4.97;;
16472;SDS011;8347;52.486;13.432;2023-08-24T03:24:08;6.63;;;5.43;;
16472;SDS011;8347;52.486;13.432;2023-08-24T03:26:55;7.03;;;5.07;;
16472;SDS011;8347;52.486;13.432;2023-08-24T03:29:41;5.55;;;4.50;;
16472;SDS011;8347;52.486;13.432;2023-08-24T03:32:28;6.65;;;5.10;;
16472;SDS011;8347;52.486;13.432;2023-08-24T03:35:15;6.45;;;4.85;;
16472;SDS011;8347;52.486;13.432;2023-08-24T03:38:01;6.07;;;4.75;;
16472;SDS011;8347;52.486;13.432;2023-08-24T03:40:48;6.90;;;4.57;;
16472;SDS011;8347;52.486;13.432;2023-08-24T03:43:35;5.03;;;4.53;;
16472;SDS011;8347;52.486;13.432;2023-08-24T03:46:22;6.60;;;4.55;;
16472;SDS011;8347;52.486;13.432;2023-08-24T03:49:09;4.97;;;4.13;;
16472;SDS011;8347;52.486;13.432;2023-08-24T03:51:55;5.15;;;4.50;;
16472;SDS011;8347;52.486;13.432;2023-08-24T03:54:42;6.05;;;3.95;;
16472;SDS011;8347;52.486;13.432;2023-08-24T03:57:30;5.90;;;3.83;;
16472;SDS011;8347;52.486;13.432;2023-08-24T04:00:16;5.18;;;3.90;;
16472;SDS011;8347;52.486;13.432;2023-08-24T04:03:04;4.68;;;3.97;;
16472;SDS011;8347;52.486;13.432;2023-08-24T04:05:51;5.13;;;3.55;;
16472;SDS011;8347;52.486;13.432;2023-08-24T04:08:38;4.45;;;4.00;;
16472;SDS011;8347;52.486;13.432;2023-08-24T04:11:24;5.47;;;3.88;;
16472;SDS011;8347;52.486;13.432;2023-08-24T04:14:11;6.90;;;4.50;;
16472;SDS011;8347;52.486;13.432;2023-08-24T04:16:57;6.95;;;4.22;;
16472;SDS011;8347;52.486;13.432;2023-08-24T04:19:44;5.65;;;3.88;;
16472;SDS011;8347;52.486;13.432;2023-08-24T04:22:31;4.72;;;3.78;;
16472;SDS011;8347;52.486;13.432;2023-08-24T04:25:17;7.25;;;4.47;;
16472;SDS011;8347;52.486;13.432;2023-08-24T04:28:04;6.47;;;3.88;;
16472;SDS011;8347;52.486;13.432;2023-08-24T04:30:51;6.18;;;4.13;;
16472;SDS011;8347;52.486;13.432;2023-08-24T04:33:38;8.32;;;4.38;;
16472;SDS011;8347;52.486;13.432;2023-08-24T04:36:24;6.78;;;4.22;;
16472;SDS011;8347;52.486;13.432;2023-08-24T04:39:11;8.15;;;4.72;;
16472;SDS011;8347;52.486;13.432;2023-08-24T04:41:57;8.18;;;4.55;;
16472;SDS011;8347;52.486;13.432;2023-08-24T04:44:44;6.18;;;3.83;;
16472;SDS011;8347;52.486;13.432;2023-08-24T04:47:30;5.45;;;4.00;;
16472;SDS011;8347;52.486;13.432;2023-08-24T04:50:16;7.00;;;4.43;;
16472;SDS011;8347;52.486;13.432;2023-08-24T04:53:03;7.05;;;4.10;;
16472;SDS011;8347;52.486;13.432;2023-08-24T04:55:49;5.25;;;3.65;;
16472;SDS011;8347;52.486;13.432;2023-08-24T04:58:36;6.75;;;4.45;;
16472;SDS011;8347;52.486;13.432;2023-08-24T05:01:23;5.57;;;4.53;;
16472;SDS011;8347;52.486;13.432;2023-08-24T05:04:10;6.88;;;3.92;;
16472;SDS011;8347;52.486;13.432;2023-08-24T05:06:57;5.55;;;3.53;;
16472;SDS011;8347;52.486;13.432;2023-08-24T05:09:44;6.32;;;3.85;;
16472;SDS011;8347;52.486;13.432;2023-08-24T05:12:30;4.95;;;3.72;;
16472;SDS011;8347;52.486;13.432;2023-08-24T05:15:19;6.95;;;3.83;;
16472;SDS011;8347;52.486;13.432;2023-08-24T05:18:05;5.65;;;3.58;;
16472;SDS011;8347;52.486;13.432;2023-08-24T05:20:52;5.18;;;3.50;;
16472;SDS011;8347;52.486;13.432;2023-08-24T05:23:39;4.45;;;3.30;;
16472;SDS011;8347;52.486;13.432;2023-08-24T05:26:25;5.78;;;3.40;;
16472;SDS011;8347;52.486;13.432;2023-08-24T05:29:11;8.13;;;3.33;;
16472;SDS011;8347;52.486;13.432;2023-08-24T05:31:58;5.88;;;3.97;;
16472;SDS011;8347;52.486;13.432;2023-08-24T05:34:45;4.57;;;3.50;;
16472;SDS011;8347;52.486;13.432;2023-08-24T05:37:32;13.15;;;10.40;;
16472;SDS011;8347;52.486;13.432;2023-08-24T05:40:18;15.30;;;10.30;;
16472;SDS011;8347;52.486;13.432;2023-08-24T05:43:05;6.65;;;4.68;;
16472;SDS011;8347;52.486;13.432;2023-08-24T05:45:52;7.55;;;4.05;;
16472;SDS011;8347;52.486;13.432;2023-08-24T05:48:38;3.20;;;2.90;;
16472;SDS011;8347;52.486;13.432;2023-08-24T05:51:25;6.97;;;3.50;;
16472;SDS011;8347;52.486;13.432;2023-08-24T05:54:12;7.47;;;4.28;;
16472;SDS011;8347;52.486;13.432;2023-08-24T05:56:59;5.20;;;3.88;;
16472;SDS011;8347;52.486;13.432;2023-08-24T05:59:47;5.22;;;2.90;;
16472;SDS011;8347;52.486;13.432;2023-08-24T06:02:33;4.50;;;3.15;;
16472;SDS011;8347;52.486;13.432;2023-08-24T06:05:19;4.75;;;3.33;;
16472;SDS011;8347;52.486;13.432;2023-08-24T06:08:06;7.00;;;3.65;;
16472;SDS011;8347;52.486;13.432;2023-08-24T06:10:53;6.47;;;3.42;;
16472;SDS011;8347;52.486;13.432;2023-08-24T06:13:39;4.55;;;3.10;;
16472;SDS011;8347;52.486;13.432;2023-08-24T06:16:26;3.30;;;2.67;;
16472;SDS011;8347;52.486;13.432;2023-08-24T06:19:12;6.38;;;3.20;;
16472;SDS011;8347;52.486;13.432;2023-08-24T06:21:59;3.67;;;2.90;;
16472;SDS011;8347;52.486;13.432;2023-08-24T06:24:46;4.60;;;3.10;;
16472;SDS011;8347;52.486;13.432;2023-08-24T06:27:33;5.28;;;2.85;;
16472;SDS011;8347;52.486;13.432;2023-08-24T06:30:19;4.35;;;2.70;;
16472;SDS011;8347;52.486;13.432;2023-08-24T06:33:06;5.45;;;2.28;;
16472;SDS011;8347;52.486;13.432;2023-08-24T06:35:53;3.78;;;2.55;;
16472;SDS011;8347;52.486;13.432;2023-08-24T06:38:39;5.40;;;2.28;;
16472;SDS011;8347;52.486;13.432;2023-08-24T06:41:26;4.05;;;2.50;;
16472;SDS011;8347;52.486;13.432;2023-08-24T06:44:12;5.13;;;2.70;;
16472;SDS011;8347;52.486;13.432;2023-08-24T06:46:59;5.15;;;2.22;;
16472;SDS011;8347;52.486;13.432;2023-08-24T06:49:46;3.15;;;2.25;;
16472;SDS011;8347;52.486;13.432;2023-08-24T06:52:33;7.20;;;2.65;;
16472;SDS011;8347;52.486;13.432;2023-08-24T06:55:19;2.88;;;2.25;;
16472;SDS011;8347;52.486;13.432;2023-08-24T06:58:06;3.63;;;2.28;;
16472;SDS011;8347;52.486;13.432;2023-08-24T07:00:53;3.88;;;2.65;;
16472;SDS011;8347;52.486;13.432;2023-08-24T07:03:41;5.97;;;3.05;;
16472;SDS011;8347;52.486;13.432;2023-08-24T07:06:28;5.80;;;2.90;;
16472;SDS011;8347;52.486;13.432;2023-08-24T07:09:14;3.83;;;2.78;;
16472;SDS011;8347;52.486;13.432;2023-08-24T07:12:04;3.83;;;2.33;;
16472;SDS011;8347;52.486;13.432;2023-08-24T07:14:52;9.40;;;3.10;;
16472;SDS011;8347;52.486;13.432;2023-08-24T07:17:39;5.35;;;2.22;;
16472;SDS011;8347;52.486;13.432;2023-08-24T07:20:26;5.75;;;2.80;;
16472;SDS011;8347;52.486;13.432;2023-08-24T07:23:12;2.58;;;2.13;;
16472;SDS011;8347;52.486;13.432;2023-08-24T07:25:59;7.78;;;2.00;;
16472;SDS011;8347;52.486;13.432;2023-08-24T07:28:45;5.63;;;3.53;;
16472;SDS011;8347;52.486;13.432;2023-08-24T07:31:32;4.03;;;2.83;;
16472;SDS011;8347;52.486;13.432;2023-08-24T07:34:19;6.15;;;3.90;;
16472;SDS011;8347;52.486;13.432;2023-08-24T07:37:05;8.82;;;6.07;;
16472;SDS011;8347;52.486;13.432;2023-08-24T07:39:51;4.78;;;4.10;;
16472;SDS011;8347;52.486;13.432;2023-08-24T07:42:44;3.97;;;2.92;;
16472;SDS011;8347;52.486;13.432;2023-08-24T07:45:32;5.70;;;3.72;;
16472;SDS011;8347;52.486;13.432;2023-08-24T07:48:19;4.22;;;2.75;;
16472;SDS011;8347;52.486;13.432;2023-08-24T07:51:05;3.70;;;2.53;;
16472;SDS011;8347;52.486;13.432;2023-08-24T07:53:53;6.25;;;3.35;;
16472;SDS011;8347;52.486;13.432;2023-08-24T07:56:40;6.00;;;3.47;;
16472;SDS011;8347;52.486;13.432;2023-08-24T07:59:26;5.13;;;2.50;;
16472;SDS011;8347;52.486;13.432;2023-08-24T08:02:13;3.15;;;2.40;;
16472;SDS011;8347;52.486;13.432;2023-08-24T08:05:01;3.60;;;2.75;;
16472;SDS011;8347;52.486;13.432;2023-08-24T08:07:47;7.35;;;2.75;;
16472;SDS011;8347;52.486;13.432;2023-08-24T08:10:34;3.55;;;2.15;;
16472;SDS011;8347;52.486;13.432;2023-08-24T08:13:20;4.57;;;3.00;;
16472;SDS011;8347;52.486;13.432;2023-08-24T08:16:07;3.53;;;2.45;;
16472;SDS011;8347;52.486;13.432;2023-08-24T08:18:54;3.20;;;2.20;;
16472;SDS011;8347;52.486;13.432;2023-08-24T08:21:40;4.57;;;2.35;;
16472;SDS011;8347;52.486;13.432;2023-08-24T08:24:26;4.45;;;2.63;;
16472;SDS011;8347;52.486;13.432;2023-08-24T08:27:13;7.63;;;2.83;;
16472;SDS011;8347;52.486;13.432;2023-08-24T08:29:59;11.10;;;3.33;;
16472;SDS011;8347;52.486;13.432;2023-08-24T08:32:46;3.88;;;2.30;;
16472;SDS011;8347;52.486;13.432;2023-08-24T08:35:33;3.58;;;2.40;;
16472;SDS011;8347;52.486;13.432;2023-08-24T08:38:20;3.55;;;2.30;;
16472;SDS011;8347;52.486;13.432;2023-08-24T08:41:11;4.30;;;3.03;;
16472;SDS011;8347;52.486;13.432;2023-08-24T08:43:59;3.63;;;2.80;;
16472;SDS011;8347;52.486;13.432;2023-08-24T08:46:50;3.40;;;2.85;;
16472;SDS011;8347;52.486;13.432;2023-08-24T08:49:40;3.92;;;3.10;;
16472;SDS011;8347;52.486;13.432;2023-08-24T08:52:28;4.78;;;2.67;;
16472;SDS011;8347;52.486;13.432;2023-08-24T08:55:15;7.93;;;2.60;;
16472;SDS011;8347;52.486;13.432;2023-08-24T08:58:02;3.50;;;2.25;;
16472;SDS011;8347;52.486;13.432;2023-08-24T09:00:49;2.80;;;2.40;;
16472;SDS011;8347;52.486;13.432;2023-08-24T09:03:37;5.78;;;3.03;;
16472;SDS011;8347;52.486;13.432;2023-08-24T09:06:25;6.57;;;3.58;;
16472;SDS011;8347;52.486;13.432;2023-08-24T09:09:12;8.07;;;3.00;;
16472;SDS011;8347;52.486;13.432;2023-08-24T09:11:59;4.88;;;2.70;;
16472;SDS011;8347;52.486;13.432;2023-08-24T09:14:46;4.13;;;2.75;;
16472;SDS011;8347;52.486;13.432;2023-08-24T09:17:33;4.13;;;3.03;;
16472;SDS011;8347;52.486;13.432;2023-08-24T09:20:20;3.78;;;3.30;;
16472;SDS011;8347;52.486;13.432;2023-08-24T09:23:09;3.28;;;2.33;;
16472;SDS011;8347;52.486;13.432;2023-08-24T09:26:04;2.95;;;2.00;;
16472;SDS011;8347;52.486;13.432;2023-08-24T09:28:51;5.28;;;2.85;;
16472;SDS011;8347;52.486;13.432;2023-08-24T09:31:38;8.90;;;2.72;;
16472;SDS011;8347;52.486;13.432;2023-08-24T09:34:25;5.82;;;2.20;;
16472;SDS011;8347;52.486;13.432;2023-08-24T09:37:12;5.85;;;2.13;;
16472;SDS011;8347;52.486;13.432;2023-08-24T09:40:03;2.65;;;2.30;;
16472;SDS011;8347;52.486;13.432;2023-08-24T09:42:53;5.93;;;2.60;;
16472;SDS011;8347;52.486;13.432;2023-08-24T09:45:53;5.47;;;2.40;;
16472;SDS011;8347;52.486;13.432;2023-08-24T09:48:40;3.97;;;2.22;;
16472;SDS011;8347;52.486;13.432;2023-08-24T09:51:27;6.28;;;2.95;;
16472;SDS011;8347;52.486;13.432;2023-08-24T09:54:15;2.53;;;2.17;;
16472;SDS011;8347;52.486;13.432;2023-08-24T09:57:02;3.65;;;2.03;;
16472;SDS011;8347;52.486;13.432;2023-08-24T09:59:50;4.25;;;2.20;;
16472;SDS011;8347;52.486;13.432;2023-08-24T10:02:41;2.55;;;2.05;;
16472;SDS011;8347;52.486;13.432;2023-08-24T10:05:35;5.53;;;3.42;;
16472;SDS011;8347;52.486;13.432;2023-08-24T10:08:26;6.22;;;2.80;;
16472;SDS011;8347;52.486;13.432;2023-08-24T10:11:14;5.03;;;2.35;;
16472;SDS011;8347;52.486;13.432;2023-08-24T10:14:15;3.78;;;2.95;;
16472;SDS011;8347;52.486;13.432;2023-08-24T10:17:04;2.85;;;2.03;;
16472;SDS011;8347;52.486;13.432;2023-08-24T10:19:51;1.92;;;1.80;;
16472;SDS011;8347;52.486;13.432;2023-08-24T10:22:38;3.72;;;1.92;;
16472;SDS011;8347;52.486;13.432;2023-08-24T10:25:26;2.47;;;2.13;;
16472;SDS011;8347;52.486;13.432;2023-08-24T10:28:14;5.93;;;3.38;;
16472;SDS011;8347;52.486;13.432;2023-08-24T10:31:02;4.13;;;2.17;;
16472;SDS011;8347;52.486;13.432;2023-08-24T10:33:49;4.93;;;2.75;;
16472;SDS011;8347;52.486;13.432;2023-08-24T10:36:38;4.25;;;2.63;;
16472;SDS011;8347;52.486;13.432;2023-08-24T10:39:28;4.38;;;2.03;;
16472;SDS011;8347;52.486;13.432;2023-08-24T10:42:15;2.75;;;2.15;;
16472;SDS011;8347;52.486;13.432;2023-08-24T10:45:01;5.07;;;1.90;;
16472;SDS011;8347;52.486;13.432;2023-08-24T10:47:52;6.47;;;2.40;;
16472;SDS011;8347;52.486;13.432;2023-08-24T10:50:39;3.95;;;1.75;;
16472;SDS011;8347;52.486;13.432;2023-08-24T10:53:38;8.82;;;2.63;;
16472;SDS011;8347;52.486;13.432;2023-08-24T10:56:29;3.95;;;2.38;;
16472;SDS011;8347;52.486;13.432;2023-08-24T10:59:17;4.43;;;2.15;;
16472;SDS011;8347;52.486;13.432;2023-08-24T11:02:03;3.58;;;2.78;;
16472;SDS011;8347;52.486;13.432;2023-08-24T11:05:05;12.68;;;2.95;;
16472;SDS011;8347;52.486;13.432;2023-08-24T11:07:53;5.43;;;4.22;;
16472;SDS011;8347;52.486;13.432;2023-08-24T11:13:27;5.63;;;3.30;;
16472;SDS011;8347;52.486;13.432;2023-08-24T11:16:37;3.63;;;3.10;;
16472;SDS011;8347;52.486;13.432;2023-08-24T11:19:21;3.88;;;2.58;;
16472;SDS011;8347;52.486;13.432;2023-08-24T11:22:07;4.53;;;2.50;;
16472;SDS011;8347;52.486;13.432;2023-08-24T11:24:54;3.10;;;2.00;;
16472;SDS011;8347;52.486;13.432;2023-08-24T11:27:41;7.65;;;2.80;;
16472;SDS011;8347;52.486;13.432;2023-08-24T11:30:29;4.13;;;2.35;;
16472;SDS011;8347;52.486;13.432;2023-08-24T11:33:16;9.57;;;2.40;;
16472;SDS011;8347;52.486;13.432;2023-08-24T11:36:03;4.72;;;2.20;;
16472;SDS011;8347;52.486;13.432;2023-08-24T11:38:52;7.65;;;3.28;;
16472;SDS011;8347;52.486;13.432;2023-08-24T11:41:42;4.30;;;2.90;;
16472;SDS011;8347;52.486;13.432;2023-08-24T11:44:32;4.10;;;3.53;;
16472;SDS011;8347;52.486;13.432;2023-08-24T11:47:31;5.35;;;2.60;;
16472;SDS011;8347;52.486;13.432;2023-08-24T11:50:18;7.13;;;2.90;;
16472;SDS011;8347;52.486;13.432;2023-08-24T11:53:06;6.47;;;2.70;;
16472;SDS011;8347;52.486;13.432;2023-08-24T11:55:52;4.75;;;3.15;;
16472;SDS011;8347;52.486;13.432;2023-08-24T11:58:40;5.78;;;2.95;;
16472;SDS011;8347;52.486;13.432;2023-08-24T12:01:27;9.30;;;4.25;;
16472;SDS011;8347;52.486;13.432;2023-08-24T12:04:13;4.15;;;3.40;;
16472;SDS011;8347;52.486;13.432;2023-08-24T12:07:00;4.88;;;2.70;;
16472;SDS011;8347;52.486;13.432;2023-08-24T12:09:53;5.97;;;3.08;;
16472;SDS011;8347;52.486;13.432;2023-08-24T12:12:41;4.45;;;4.00;;
16472;SDS011;8347;52.486;13.432;2023-08-24T12:15:27;5.30;;;3.30;;
16472;SDS011;8347;52.486;13.432;2023-08-24T12:18:14;5.30;;;3.83;;
16472;SDS011;8347;52.486;13.432;2023-08-24T12:21:01;6.28;;;3.33;;
16472;SDS011;8347;52.486;13.432;2023-08-24T12:23:57;4.97;;;4.00;;
16472;SDS011;8347;52.486;13.432;2023-08-24T12:26:44;4.55;;;3.17;;
16472;SDS011;8347;52.486;13.432;2023-08-24T12:29:30;5.25;;;3.05;;
16472;SDS011;8347;52.486;13.432;2023-08-24T12:32:17;6.80;;;3.78;;
16472;SDS011;8347;52.486;13.432;2023-08-24T12:35:13;3.80;;;3.00;;
16472;SDS011;8347;52.486;13.432;2023-08-24T12:38:00;5.97;;;3.55;;
16472;SDS011;8347;52.486;13.432;2023-08-24T12:40:48;6.95;;;3.63;;
16472;SDS011;8347;52.486;13.432;2023-08-24T12:43:34;11.07;;;4.13;;
16472;SDS011;8347;52.486;13.432;2023-08-24T12:46:21;5.50;;;3.35;;
16472;SDS011;8347;52.486;13.432;2023-08-24T12:49:07;3.25;;;2.95;;
16472;SDS011;8347;52.486;13.432;2023-08-24T12:51:54;3.70;;;3.35;;
16472;SDS011;8347;52.486;13.432;2023-08-24T12:54:40;2.80;;;2.53;;
16472;SDS011;8347;52.486;13.432;2023-08-24T12:57:27;4.88;;;2.70;;
16472;SDS011;8347;52.486;13.432;2023-08-24T13:00:14;4.63;;;2.60;;
16472;SDS011;8347;52.486;13.432;2023-08-24T13:03:00;4.47;;;2.60;;
16472;SDS011;8347;52.486;13.432;2023-08-24T13:05:47;5.22;;;2.83;;
16472;SDS011;8347;52.486;13.432;2023-08-24T13:08:34;3.88;;;2.70;;
16472;SDS011;8347;52.486;13.432;2023-08-24T13:11:21;3.30;;;2.67;;
16472;SDS011;8347;52.486;13.432;2023-08-24T13:14:08;3.47;;;2.65;;
16472;SDS011;8347;52.486;13.432;2023-08-24T13:16:55;7.50;;;3.50;;
16472;SDS011;8347;52.486;13.432;2023-08-24T13:19:41;3.67;;;3.30;;
16472;SDS011;8347;52.486;13.432;2023-08-24T13:22:28;4.43;;;3.17;;
16472;SDS011;8347;52.486;13.432;2023-08-24T13:25:15;3.70;;;2.90;;
16472;SDS011;8347;52.486;13.432;2023-08-24T13:28:01;4.80;;;2.72;;
16472;SDS011;8347;52.486;13.432;2023-08-24T13:30:48;5.63;;;3.03;;
16472;SDS011;8347;52.486;13.432;2023-08-24T13:33:34;4.28;;;3.03;;
16472;SDS011;8347;52.486;13.432;2023-08-24T13:36:21;5.53;;;3.33;;
16472;SDS011;8347;52.486;13.432;2023-08-24T13:39:07;4.85;;;3.30;;
16472;SDS011;8347;52.486;13.432;2023-08-24T13:41:54;3.28;;;2.90;;
16472;SDS011;8347;52.486;13.432;2023-08-24T13:44:40;2.33;;;2.08;;
16472;SDS011;8347;52.486;13.432;2023-08-24T13:47:27;3.97;;;2.70;;
16472;SDS011;8347;52.486;13.432;2023-08-24T13:50:13;4.30;;;3.70;;
16472;SDS011;8347;52.486;13.432;2023-08-24T13:53:00;7.00;;;3.60;;
16472;SDS011;8347;52.486;13.432;2023-08-24T13:55:46;4.75;;;3.13;;
16472;SDS011;8347;52.486;13.432;2023-08-24T13:58:33;10.98;;;6.25;;
16472;SDS011;8347;52.486;13.432;2023-08-24T14:01:20;7.00;;;5.03;;
16472;SDS011;8347;52.486;13.432;2023-08-24T14:04:06;3.45;;;2.55;;
16472;SDS011;8347;52.486;13.432;2023-08-24T14:06:53;3.72;;;2.78;;
16472;SDS011;8347;52.486;13.432;2023-08-24T14:09:39;4.05;;;2.92;;
16472;SDS011;8347;52.486;13.432;2023-08-24T14:12:26;2.47;;;2.25;;
16472;SDS011;8347;52.486;13.432;2023-08-24T14:15:12;4.47;;;2.85;;
16472;SDS011;8347;52.486;13.432;2023-08-24T14:17:59;4.57;;;3.00;;
16472;SDS011;8347;52.486;13.432;2023-08-24T14:20:46;5.05;;;2.95;;
16472;SDS011;8347;52.486;13.432;2023-08-24T14:23:32;3.00;;;2.20;;
16472;SDS011;8347;52.486;13.432;2023-08-24T14:26:19;6.88;;;3.05;;
16472;SDS011;8347;52.486;13.432;2023-08-24T14:29:05;7.85;;;2.80;;
16472;SDS011;8347;52.486;13.432;2023-08-24T14:31:52;4.47;;;2.22;;
16472;SDS011;8347;52.486;13.432;2023-08-24T14:34:39;2.50;;;2.08;;
16472;SDS011;8347;52.486;13.432;2023-08-24T14:37:25;4.43;;;2.80;;
16472;SDS011;8347;52.486;13.432;2023-08-24T14:40:12;4.15;;;2.85;;
16472;SDS011;8347;52.486;13.432;2023-08-24T14:43:01;3.17;;;2.60;;
16472;SDS011;8347;52.486;13.432;2023-08-24T14:45:48;4.78;;;3.65;;
16472;SDS011;8347;52.486;13.432;2023-08-24T14:48:35;6.10;;;3.63;;
16472;SDS011;8347;52.486;13.432;2023-08-24T14:51:21;4.80;;;2.85;;
16472;SDS011;8347;52.486;13.432;2023-08-24T14:54:08;3.75;;;3.30;;
16472;SDS011;8347;52.486;13.432;2023-08-24T14:56:57;5.15;;;3.80;;
16472;SDS011;8347;52.486;13.432;2023-08-24T14:59:45;5.82;;;4.35;;
16472;SDS011;8347;52.486;13.432;2023-08-24T15:02:32;5.78;;;4.43;;
16472;SDS011;8347;52.486;13.432;2023-08-24T15:05:18;5.97;;;3.25;;
16472;SDS011;8347;52.486;13.432;2023-08-24T15:08:05;12.13;;;7.03;;
16472;SDS011;8347;52.486;13.432;2023-08-24T15:10:53;8.20;;;3.88;;
16472;SDS011;8347;52.486;13.432;2023-08-24T15:13:41;3.67;;;2.60;;
16472;SDS011;8347;52.486;13.432;2023-08-24T15:16:28;4.00;;;2.80;;
16472;SDS011;8347;52.486;13.432;2023-08-24T15:19:15;4.25;;;2.92;;
16472;SDS011;8347;52.486;13.432;2023-08-24T15:22:01;6.70;;;4.10;;
16472;SDS011;8347;52.486;13.432;2023-08-24T15:24:48;6.35;;;4.63;;
16472;SDS011;8347;52.486;13.432;2023-08-24T15:27:36;7.22;;;3.70;;
16472;SDS011;8347;52.486;13.432;2023-08-24T15:30:23;3.88;;;3.45;;
16472;SDS011;8347;52.486;13.432;2023-08-24T15:33:10;5.05;;;3.00;;
16472;SDS011;8347;52.486;13.432;2023-08-24T15:35:56;4.07;;;2.85;;
16472;SDS011;8347;52.486;13.432;2023-08-24T15:38:43;3.90;;;3.50;;
16472;SDS011;8347;52.486;13.432;2023-08-24T15:41:29;5.57;;;3.30;;
16472;SDS011;8347;52.486;13.432;2023-08-24T15:44:16;6.32;;;3.38;;
16472;SDS011;8347;52.486;13.432;2023-08-24T15:47:03;4.72;;;3.05;;
16472;SDS011;8347;52.486;13.432;2023-08-24T15:49:49;3.13;;;2.75;;
16472;SDS011;8347;52.486;13.432;2023-08-24T15:52:35;3.15;;;2.80;;
16472;SDS011;8347;52.486;13.432;2023-08-24T15:55:22;3.88;;;3.20;;
16472;SDS011;8347;52.486;13.432;2023-08-24T15:58:08;4.47;;;3.20;;
16472;SDS011;8347;52.486;13.432;2023-08-24T16:00:55;9.85;;;4.70;;
16472;SDS011;8347;52.486;13.432;2023-08-24T16:03:41;4.45;;;3.47;;
16472;SDS011;8347;52.486;13.432;2023-08-24T16:06:28;4.97;;;4.03;;
16472;SDS011;8347;52.486;13.432;2023-08-24T16:09:14;7.07;;;3.58;;
16472;SDS011;8347;52.486;13.432;2023-08-24T16:12:00;6.95;;;3.63;;
16472;SDS011;8347;52.486;13.432;2023-08-24T16:14:47;8.00;;;5.53;;
16472;SDS011;8347;52.486;13.432;2023-08-24T16:17:34;10.10;;;6.47;;
16472;SDS011;8347;52.486;13.432;2023-08-24T16:20:21;12.93;;;8.40;;
16472;SDS011;8347;52.486;13.432;2023-08-24T16:23:07;10.90;;;8.13;;
16472;SDS011;8347;52.486;13.432;2023-08-24T16:25:57;10.75;;;6.75;;
16472;SDS011;8347;52.486;13.432;2023-08-24T16:28:44;8.45;;;6.63;;
16472;SDS011;8347;52.486;13.432;2023-08-24T16:31:31;9.55;;;5.88;;
16472;SDS011;8347;52.486;13.432;2023-08-24T16:34:17;7.75;;;5.97;;
16472;SDS011;8347;52.486;13.432;2023-08-24T16:37:03;8.68;;;6.43;;
16472;SDS011;8347;52.486;13.432;2023-08-24T16:39:50;6.22;;;4.97;;
16472;SDS011;8347;52.486;13.432;2023-08-24T16:42:36;7.50;;;4.68;;
16472;SDS011;8347;52.486;13.432;2023-08-24T16:45:23;9.35;;;5.65;;
16472;SDS011;8347;52.486;13.432;2023-08-24T16:48:09;6.25;;;5.18;;
16472;SDS011;8347;52.486;13.432;2023-08-24T16:50:55;9.07;;;6.60;;
16472;SDS011;8347;52.486;13.432;2023-08-24T16:53:42;7.85;;;6.63;;
16472;SDS011;8347;52.486;13.432;2023-08-24T16:56:29;5.50;;;4.47;;